Terminal Aerodrome Forecast
Issued by NWS Cleveland, OH

Home | Current Version | Previous Version | Text Only | Print | Product List | Glossary Off
Versions: 1 2 3 4 5 6 7 8 9 10 11 12 13 14 15 16 17 18

000
FTUS41 KCLE 230531
TAFTOL
TAF
KTOL 230531Z 2306/2406 VRB03KT P6SM FEW028 SCT150
     FM230800 VRB03KT 6SM BR SCT026 BKN060
     FM231000 VRB03KT 5SM BR SCT019 BKN035
     FM231400 VRB03KT P6SM SCT023 BKN060
      TEMPO 2314/2316 BKN023 BKN060
     FM231800 28007KT P6SM SCT025 BKN060 PROB30 2318/2322 4SM TS
      BKN025CB=

USA.gov is the U.S. government's official web portal to all federal, state and local government web resources and services.